E.r. Borneo — A8SZ4 — position and weather

sailwx.info

Track history (hours):
 
Tides and Currents Weather Stations Pressure Air Temp Water Temp Dewpoint Dewpoint Depression Visibility Wind Speed Wind Dir Waves Ship Positions

E.r. Borneo

Last reported at 2014-Jul-23 12:33 UTC. Time now 2014-Jul-23 13:32 UTC.
Position N 36°39' W 000°13'.

Length 292 m; draft 17.9 m.

Type: Cargo ship. MMSI: 636091797.

Date/timePositionNaut miles runAvg speedWind from/ knotsBaromVisibWave heightAir tempDewpointWater temp
2014-Jul-23 12:33N 36°39' W 000°13'1111.5
2014-Jul-23 11:33N 36°37' W 000°27'1511.9
2014-Jul-23 10:20N 36°35' W 000°45'911.5
2014-Jul-23 09:33N 36°33' W 000°56'1211.6
2014-Jul-23 08:31N 36°31' W 001°11'1212.1
2014-Jul-23 07:33N 36°28' W 001°25'1211.8
2014-Jul-23 06:33N 36°26' W 001°39'1111.2
2014-Jul-23 05:33N 36°24' W 001°53'1611.7
2014-Jul-23 04:11N 36°22' W 002°13'711.4
2014-Jul-23 03:33N 36°21' W 002°22'14512.0
2014-Jul-22 15:27N 35°59' W 005°19'20211.2
2014-Jul-21 21:32N 33°58' W 008°35'1010.6
2014-Jul-21 20:33N 33°51' W 008°44'310.7
2014-Jul-21 20:17N 33°49' W 008°47'810.8
2014-Jul-21 19:31N 33°44' W 008°54'1010.8
2014-Jul-21 18:33N 33°36' W 009°04'1110.9
2014-Jul-21 17:33N 33°29' W 009°14'  
Track history (hours):
 
Tides and Currents Weather Stations Pressure Air Temp Water Temp Dewpoint Dewpoint Depression Visibility Wind Speed Wind Dir Waves Ship Positions

E.r. Borneo

Last reported at 2014-Jul-23 12:33 UTC. Time now 2014-Jul-23 13:32 UTC.
Position N 36°39' W 000°13'.

Length 292 m; draft 17.9 m.

Type: Cargo ship. MMSI: 636091797.

Date/timePositionNaut miles runAvg speedWind from/ knotsBaromVisibWave heightAir tempDewpointWater temp
2014-Jul-23 12:33N 36°39' W 000°13'1111.5
2014-Jul-23 11:33N 36°37' W 000°27'1511.9
2014-Jul-23 10:20N 36°35' W 000°45'911.5
2014-Jul-23 09:33N 36°33' W 000°56'1211.6
2014-Jul-23 08:31N 36°31' W 001°11'1212.1
2014-Jul-23 07:33N 36°28' W 001°25'1211.8
2014-Jul-23 06:33N 36°26' W 001°39'1111.2
2014-Jul-23 05:33N 36°24' W 001°53'1611.7
2014-Jul-23 04:11N 36°22' W 002°13'711.4
2014-Jul-23 03:33N 36°21' W 002°22'14512.0
2014-Jul-22 15:27N 35°59' W 005°19'20211.2
2014-Jul-21 21:32N 33°58' W 008°35'1010.6
2014-Jul-21 20:33N 33°51' W 008°44'310.7
2014-Jul-21 20:17N 33°49' W 008°47'810.8
2014-Jul-21 19:31N 33°44' W 008°54'1010.8
2014-Jul-21 18:33N 33°36' W 009°04'1110.9
2014-Jul-21 17:33N 33°29' W 009°14'  

Dump ship's entire track history